sensor_id;sensor_type;location;lat;lon;timestamp;temperature;humidity
314;DHT22;143;51.634;7.112;2022-09-03T00:00:20;19.20;1.00
314;DHT22;143;51.634;7.112;2022-09-03T00:03:02;19.20;1.00
314;DHT22;143;51.634;7.112;2022-09-03T00:05:39;19.10;1.00
314;DHT22;143;51.634;7.112;2022-09-03T00:10:53;19.00;1.00
314;DHT22;143;51.634;7.112;2022-09-03T00:13:36;19.00;1.00
314;DHT22;143;51.634;7.112;2022-09-03T00:16:07;18.90;1.00
314;DHT22;143;51.634;7.112;2022-09-03T00:18:36;18.80;1.00
314;DHT22;143;51.634;7.112;2022-09-03T00:21:17;18.80;1.00
314;DHT22;143;51.634;7.112;2022-09-03T00:23:47;18.80;1.00
314;DHT22;143;51.634;7.112;2022-09-03T00:26:21;18.70;1.00
314;DHT22;143;51.634;7.112;2022-09-03T00:29:05;18.70;1.00
314;DHT22;143;51.634;7.112;2022-09-03T00:31:42;18.70;1.00
314;DHT22;143;51.634;7.112;2022-09-03T00:36:45;18.60;1.00
314;DHT22;143;51.634;7.112;2022-09-03T00:39:19;18.60;1.00
314;DHT22;143;51.634;7.112;2022-09-03T00:47:04;18.50;1.00
314;DHT22;143;51.634;7.112;2022-09-03T01:00:24;18.30;1.00
314;DHT22;143;51.634;7.112;2022-09-03T01:08:57;18.30;1.00
314;DHT22;143;51.634;7.112;2022-09-03T01:17:15;18.30;1.00
314;DHT22;143;51.634;7.112;2022-09-03T01:30:59;18.20;1.00
314;DHT22;143;51.634;7.112;2022-09-03T01:33:43;18.20;1.00
314;DHT22;143;51.634;7.112;2022-09-03T01:36:25;18.20;1.00
314;DHT22;143;51.634;7.112;2022-09-03T01:39:06;18.10;1.00
314;DHT22;143;51.634;7.112;2022-09-03T01:50:11;18.20;1.00
314;DHT22;143;51.634;7.112;2022-09-03T01:53:04;18.20;1.00
314;DHT22;143;51.634;7.112;2022-09-03T01:58:36;18.10;1.00
314;DHT22;143;51.634;7.112;2022-09-03T02:01:11;18.10;1.00
314;DHT22;143;51.634;7.112;2022-09-03T02:03:41;18.10;1.00
314;DHT22;143;51.634;7.112;2022-09-03T02:06:10;18.10;1.00
314;DHT22;143;51.634;7.112;2022-09-03T02:08:36;18.10;1.00
314;DHT22;143;51.634;7.112;2022-09-03T02:11:06;18.10;1.00
314;DHT22;143;51.634;7.112;2022-09-03T02:13:41;18.10;1.00
314;DHT22;143;51.634;7.112;2022-09-03T02:16:30;18.10;1.00
314;DHT22;143;51.634;7.112;2022-09-03T02:19:10;18.10;1.00
314;DHT22;143;51.634;7.112;2022-09-03T02:21:39;18.00;1.00
314;DHT22;143;51.634;7.112;2022-09-03T02:24:08;18.00;1.00
314;DHT22;143;51.634;7.112;2022-09-03T02:26:34;17.90;1.00
314;DHT22;143;51.634;7.112;2022-09-03T02:29:01;17.90;1.00
314;DHT22;143;51.634;7.112;2022-09-03T02:31:27;17.90;1.00
314;DHT22;143;51.634;7.112;2022-09-03T02:33:55;17.80;1.00
314;DHT22;143;51.634;7.112;2022-09-03T02:36:26;17.80;1.00
314;DHT22;143;51.634;7.112;2022-09-03T02:38:52;17.80;1.00
314;DHT22;143;51.634;7.112;2022-09-03T02:41:18;17.80;1.00
314;DHT22;143;51.634;7.112;2022-09-03T02:43:54;17.80;1.00
314;DHT22;143;51.634;7.112;2022-09-03T02:46:24;17.80;1.00
314;DHT22;143;51.634;7.112;2022-09-03T02:48:53;17.80;1.00
314;DHT22;143;51.634;7.112;2022-09-03T02:51:19;17.70;1.00
314;DHT22;143;51.634;7.112;2022-09-03T02:53:44;17.70;1.00
314;DHT22;143;51.634;7.112;2022-09-03T02:56:10;17.70;1.00
314;DHT22;143;51.634;7.112;2022-09-03T02:58:36;17.60;1.00
314;DHT22;143;51.634;7.112;2022-09-03T03:01:02;17.60;1.00
314;DHT22;143;51.634;7.112;2022-09-03T03:03:28;17.70;1.00
314;DHT22;143;51.634;7.112;2022-09-03T03:05:56;17.70;1.00
314;DHT22;143;51.634;7.112;2022-09-03T03:08:24;17.60;1.00
314;DHT22;143;51.634;7.112;2022-09-03T03:10:52;17.60;1.00
314;DHT22;143;51.634;7.112;2022-09-03T03:13:21;17.60;1.00
314;DHT22;143;51.634;7.112;2022-09-03T03:15:47;17.60;1.00
314;DHT22;143;51.634;7.112;2022-09-03T03:18:13;17.60;1.00
314;DHT22;143;51.634;7.112;2022-09-03T03:20:40;17.60;1.00
314;DHT22;143;51.634;7.112;2022-09-03T03:23:07;17.50;1.00
314;DHT22;143;51.634;7.112;2022-09-03T03:25:34;17.50;1.00
314;DHT22;143;51.634;7.112;2022-09-03T03:28:00;17.50;1.00
314;DHT22;143;51.634;7.112;2022-09-03T03:30:26;17.40;1.00
314;DHT22;143;51.634;7.112;2022-09-03T03:32:54;17.50;1.00
314;DHT22;143;51.634;7.112;2022-09-03T03:35:20;17.40;1.00
314;DHT22;143;51.634;7.112;2022-09-03T03:37:46;17.40;1.00
314;DHT22;143;51.634;7.112;2022-09-03T03:40:12;17.40;1.00
314;DHT22;143;51.634;7.112;2022-09-03T03:42:38;17.40;1.00
314;DHT22;143;51.634;7.112;2022-09-03T03:45:05;17.40;1.00
314;DHT22;143;51.634;7.112;2022-09-03T03:47:31;17.40;1.00
314;DHT22;143;51.634;7.112;2022-09-03T03:49:58;17.40;1.00
314;DHT22;143;51.634;7.112;2022-09-03T03:52:25;17.30;1.00
314;DHT22;143;51.634;7.112;2022-09-03T03:54:52;17.40;1.00
314;DHT22;143;51.634;7.112;2022-09-03T03:57:18;17.30;1.00
314;DHT22;143;51.634;7.112;2022-09-03T03:59:45;17.30;1.00
314;DHT22;143;51.634;7.112;2022-09-03T04:02:11;17.30;1.00
314;DHT22;143;51.634;7.112;2022-09-03T04:04:37;17.30;1.00
314;DHT22;143;51.634;7.112;2022-09-03T04:07:03;17.30;1.00
314;DHT22;143;51.634;7.112;2022-09-03T04:09:29;17.20;1.00
314;DHT22;143;51.634;7.112;2022-09-03T04:11:54;17.20;1.00
314;DHT22;143;51.634;7.112;2022-09-03T04:14:22;17.20;1.00
314;DHT22;143;51.634;7.112;2022-09-03T04:16:48;17.20;1.00
314;DHT22;143;51.634;7.112;2022-09-03T04:19:15;17.20;1.00
314;DHT22;143;51.634;7.112;2022-09-03T04:21:42;17.20;1.00
314;DHT22;143;51.634;7.112;2022-09-03T04:24:08;17.10;1.00
314;DHT22;143;51.634;7.112;2022-09-03T04:26:34;17.10;1.00
314;DHT22;143;51.634;7.112;2022-09-03T04:29:03;17.10;1.00
314;DHT22;143;51.634;7.112;2022-09-03T04:31:30;17.10;1.00
314;DHT22;143;51.634;7.112;2022-09-03T04:33:55;17.00;1.00
314;DHT22;143;51.634;7.112;2022-09-03T04:36:24;17.10;1.00
314;DHT22;143;51.634;7.112;2022-09-03T04:38:52;17.00;1.00
314;DHT22;143;51.634;7.112;2022-09-03T04:41:23;17.00;1.00
314;DHT22;143;51.634;7.112;2022-09-03T04:43:51;17.00;1.00
314;DHT22;143;51.634;7.112;2022-09-03T04:46:18;17.00;1.00
314;DHT22;143;51.634;7.112;2022-09-03T04:48:51;17.00;1.00
314;DHT22;143;51.634;7.112;2022-09-03T04:51:20;17.00;1.00
314;DHT22;143;51.634;7.112;2022-09-03T04:53:47;17.00;1.00
314;DHT22;143;51.634;7.112;2022-09-03T04:56:18;17.00;1.00
314;DHT22;143;51.634;7.112;2022-09-03T04:58:45;16.90;1.00
314;DHT22;143;51.634;7.112;2022-09-03T05:01:16;16.90;1.00
314;DHT22;143;51.634;7.112;2022-09-03T05:03:43;16.90;1.00
314;DHT22;143;51.634;7.112;2022-09-03T05:06:09;16.90;1.00
314;DHT22;143;51.634;7.112;2022-09-03T05:08:35;16.80;1.00
314;DHT22;143;51.634;7.112;2022-09-03T05:11:05;16.90;1.00
314;DHT22;143;51.634;7.112;2022-09-03T05:13:31;16.80;1.00
314;DHT22;143;51.634;7.112;2022-09-03T05:16:02;16.80;1.00
314;DHT22;143;51.634;7.112;2022-09-03T05:18:29;16.80;1.00
314;DHT22;143;51.634;7.112;2022-09-03T05:20:59;16.80;1.00
314;DHT22;143;51.634;7.112;2022-09-03T05:23:26;16.80;1.00
314;DHT22;143;51.634;7.112;2022-09-03T05:26:00;16.70;1.00
314;DHT22;143;51.634;7.112;2022-09-03T05:28:29;16.70;1.00
314;DHT22;143;51.634;7.112;2022-09-03T05:31:15;16.70;1.00
314;DHT22;143;51.634;7.112;2022-09-03T05:33:47;16.70;1.00
314;DHT22;143;51.634;7.112;2022-09-03T05:36:15;16.70;1.00
314;DHT22;143;51.634;7.112;2022-09-03T05:38:41;16.70;1.00
314;DHT22;143;51.634;7.112;2022-09-03T05:41:09;16.70;1.00
314;DHT22;143;51.634;7.112;2022-09-03T05:43:35;16.70;1.00
314;DHT22;143;51.634;7.112;2022-09-03T05:46:05;16.70;1.00
314;DHT22;143;51.634;7.112;2022-09-03T05:48:33;16.70;1.00
314;DHT22;143;51.634;7.112;2022-09-03T05:51:07;16.70;1.00
314;DHT22;143;51.634;7.112;2022-09-03T05:53:35;16.70;1.00
314;DHT22;143;51.634;7.112;2022-09-03T05:56:03;16.80;1.00
314;DHT22;143;51.634;7.112;2022-09-03T05:58:31;16.80;1.00
314;DHT22;143;51.634;7.112;2022-09-03T06:00:57;16.80;1.00
314;DHT22;143;51.634;7.112;2022-09-03T06:03:24;16.80;1.00
314;DHT22;143;51.634;7.112;2022-09-03T06:05:53;16.80;1.00
314;DHT22;143;51.634;7.112;2022-09-03T06:08:20;16.90;1.00
314;DHT22;143;51.634;7.112;2022-09-03T06:10:47;16.90;1.00
314;DHT22;143;51.634;7.112;2022-09-03T06:13:13;16.90;1.00
314;DHT22;143;51.634;7.112;2022-09-03T06:15:38;17.00;1.00
314;DHT22;143;51.634;7.112;2022-09-03T06:18:04;17.00;1.00
314;DHT22;143;51.634;7.112;2022-09-03T06:20:31;17.00;1.00
314;DHT22;143;51.634;7.112;2022-09-03T06:22:57;17.10;1.00
314;DHT22;143;51.634;7.112;2022-09-03T06:25:23;17.10;1.00
314;DHT22;143;51.634;7.112;2022-09-03T06:27:49;17.10;1.00
314;DHT22;143;51.634;7.112;2022-09-03T06:30:15;17.20;1.00
314;DHT22;143;51.634;7.112;2022-09-03T06:32:45;17.20;1.00
314;DHT22;143;51.634;7.112;2022-09-03T06:35:11;17.30;1.00
314;DHT22;143;51.634;7.112;2022-09-03T06:37:41;17.30;1.00
314;DHT22;143;51.634;7.112;2022-09-03T06:40:08;17.40;1.00
314;DHT22;143;51.634;7.112;2022-09-03T06:42:39;17.40;1.00
314;DHT22;143;51.634;7.112;2022-09-03T06:45:07;17.50;1.00
314;DHT22;143;51.634;7.112;2022-09-03T06:47:33;17.60;1.00
314;DHT22;143;51.634;7.112;2022-09-03T06:49:59;17.60;1.00
314;DHT22;143;51.634;7.112;2022-09-03T06:52:26;17.70;1.00
314;DHT22;143;51.634;7.112;2022-09-03T06:54:52;17.80;1.00
314;DHT22;143;51.634;7.112;2022-09-03T06:57:18;17.90;1.00
314;DHT22;143;51.634;7.112;2022-09-03T06:59:44;17.90;1.00
314;DHT22;143;51.634;7.112;2022-09-03T07:02:10;18.00;1.00
314;DHT22;143;51.634;7.112;2022-09-03T07:04:36;18.00;1.00
314;DHT22;143;51.634;7.112;2022-09-03T07:07:02;18.10;1.00
314;DHT22;143;51.634;7.112;2022-09-03T07:09:29;18.10;1.00
314;DHT22;143;51.634;7.112;2022-09-03T07:12:03;18.20;1.00
314;DHT22;143;51.634;7.112;2022-09-03T07:14:30;18.30;1.00
314;DHT22;143;51.634;7.112;2022-09-03T07:16:59;18.40;1.00
314;DHT22;143;51.634;7.112;2022-09-03T07:19:24;18.50;1.00
314;DHT22;143;51.634;7.112;2022-09-03T07:21:50;18.50;1.00
314;DHT22;143;51.634;7.112;2022-09-03T07:24:18;18.60;1.00
314;DHT22;143;51.634;7.112;2022-09-03T07:26:44;18.70;1.00
314;DHT22;143;51.634;7.112;2022-09-03T07:29:11;18.80;1.00
314;DHT22;143;51.634;7.112;2022-09-03T07:31:39;18.90;1.00
314;DHT22;143;51.634;7.112;2022-09-03T07:34:08;19.00;1.00
314;DHT22;143;51.634;7.112;2022-09-03T07:36:37;19.10;1.00
314;DHT22;143;51.634;7.112;2022-09-03T07:39:03;19.20;1.00
314;DHT22;143;51.634;7.112;2022-09-03T07:41:29;19.40;1.00
314;DHT22;143;51.634;7.112;2022-09-03T07:43:58;19.50;1.00
314;DHT22;143;51.634;7.112;2022-09-03T07:46:25;19.60;1.00
314;DHT22;143;51.634;7.112;2022-09-03T07:48:56;19.70;1.00
314;DHT22;143;51.634;7.112;2022-09-03T07:51:25;19.70;1.00
314;DHT22;143;51.634;7.112;2022-09-03T07:53:54;19.80;1.00
314;DHT22;143;51.634;7.112;2022-09-03T07:56:20;20.00;1.00
314;DHT22;143;51.634;7.112;2022-09-03T07:58:46;20.00;1.00
314;DHT22;143;51.634;7.112;2022-09-03T08:01:14;20.20;1.00
314;DHT22;143;51.634;7.112;2022-09-03T08:03:45;20.40;1.00
314;DHT22;143;51.634;7.112;2022-09-03T08:06:13;20.50;1.00
314;DHT22;143;51.634;7.112;2022-09-03T08:08:39;20.60;1.00
314;DHT22;143;51.634;7.112;2022-09-03T08:11:17;20.80;1.00
314;DHT22;143;51.634;7.112;2022-09-03T08:14:01;20.90;1.00
314;DHT22;143;51.634;7.112;2022-09-03T08:16:46;21.00;1.00
314;DHT22;143;51.634;7.112;2022-09-03T08:19:12;21.10;1.00
314;DHT22;143;51.634;7.112;2022-09-03T08:21:39;21.30;1.00
314;DHT22;143;51.634;7.112;2022-09-03T08:24:09;21.30;1.00
314;DHT22;143;51.634;7.112;2022-09-03T08:26:38;21.50;1.00
314;DHT22;143;51.634;7.112;2022-09-03T08:29:04;21.50;1.00
314;DHT22;143;51.634;7.112;2022-09-03T08:31:31;21.60;1.00
314;DHT22;143;51.634;7.112;2022-09-03T08:33:59;21.80;1.00
314;DHT22;143;51.634;7.112;2022-09-03T08:36:31;21.90;1.00
314;DHT22;143;51.634;7.112;2022-09-03T08:39:00;22.00;1.00
314;DHT22;143;51.634;7.112;2022-09-03T08:41:36;22.10;1.00
314;DHT22;143;51.634;7.112;2022-09-03T08:44:17;22.20;1.00
314;DHT22;143;51.634;7.112;2022-09-03T08:46:51;22.40;1.00
314;DHT22;143;51.634;7.112;2022-09-03T08:52:22;22.70;1.00
314;DHT22;143;51.634;7.112;2022-09-03T08:54:51;22.80;1.00
314;DHT22;143;51.634;7.112;2022-09-03T08:57:19;23.00;1.00
314;DHT22;143;51.634;7.112;2022-09-03T08:59:48;23.10;1.00
314;DHT22;143;51.634;7.112;2022-09-03T09:05:19;23.30;1.00
314;DHT22;143;51.634;7.112;2022-09-03T09:08:02;23.50;1.00
314;DHT22;143;51.634;7.112;2022-09-03T09:10:39;23.60;1.00
314;DHT22;143;51.634;7.112;2022-09-03T09:21:40;24.00;1.00
314;DHT22;143;51.634;7.112;2022-09-03T09:24:18;24.00;1.00
314;DHT22;143;51.634;7.112;2022-09-03T09:26:46;24.10;1.00
314;DHT22;143;51.634;7.112;2022-09-03T09:29:13;24.20;1.00
314;DHT22;143;51.634;7.112;2022-09-03T09:31:40;24.30;1.00
314;DHT22;143;51.634;7.112;2022-09-03T09:34:10;24.30;1.00
314;DHT22;143;51.634;7.112;2022-09-03T09:36:46;24.40;1.00
314;DHT22;143;51.634;7.112;2022-09-03T09:39:13;24.50;1.00
314;DHT22;143;51.634;7.112;2022-09-03T09:41:41;24.50;1.00
314;DHT22;143;51.634;7.112;2022-09-03T09:44:16;24.50;1.00
314;DHT22;143;51.634;7.112;2022-09-03T09:46:43;24.60;1.00
314;DHT22;143;51.634;7.112;2022-09-03T09:52:13;24.80;1.00
314;DHT22;143;51.634;7.112;2022-09-03T09:54:42;24.80;1.00
314;DHT22;143;51.634;7.112;2022-09-03T09:57:14;24.80;1.00
314;DHT22;143;51.634;7.112;2022-09-03T09:59:42;24.90;1.00
314;DHT22;143;51.634;7.112;2022-09-03T10:02:12;25.00;1.00
314;DHT22;143;51.634;7.112;2022-09-03T10:04:39;25.20;1.00
314;DHT22;143;51.634;7.112;2022-09-03T10:07:25;25.30;1.00
314;DHT22;143;51.634;7.112;2022-09-03T10:10:02;25.40;1.00
314;DHT22;143;51.634;7.112;2022-09-03T10:17:51;26.00;1.00
314;DHT22;143;51.634;7.112;2022-09-03T10:20:25;26.20;1.00
314;DHT22;143;51.634;7.112;2022-09-03T10:23:10;26.30;1.00
314;DHT22;143;51.634;7.112;2022-09-03T10:25:58;26.40;1.00
314;DHT22;143;51.634;7.112;2022-09-03T10:28:33;26.70;1.00
314;DHT22;143;51.634;7.112;2022-09-03T10:39:10;27.00;1.00
314;DHT22;143;51.634;7.112;2022-09-03T10:44:44;27.10;1.00
314;DHT22;143;51.634;7.112;2022-09-03T10:50:25;27.00;1.00
314;DHT22;143;51.634;7.112;2022-09-03T11:07:04;27.40;1.00
314;DHT22;143;51.634;7.112;2022-09-03T11:09:40;27.50;1.00
314;DHT22;143;51.634;7.112;2022-09-03T11:12:23;27.70;1.00
314;DHT22;143;51.634;7.112;2022-09-03T11:15:03;27.80;1.00
314;DHT22;143;51.634;7.112;2022-09-03T11:17:45;27.80;1.00
314;DHT22;143;51.634;7.112;2022-09-03T11:20:22;28.00;1.00
314;DHT22;143;51.634;7.112;2022-09-03T11:23:00;28.20;1.00
314;DHT22;143;51.634;7.112;2022-09-03T11:25:51;28.40;1.00
314;DHT22;143;51.634;7.112;2022-09-03T11:28:38;28.60;1.00
314;DHT22;143;51.634;7.112;2022-09-03T11:34:11;29.10;1.00
314;DHT22;143;51.634;7.112;2022-09-03T11:36:38;29.40;1.00
314;DHT22;143;51.634;7.112;2022-09-03T11:41:41;29.30;1.00
314;DHT22;143;51.634;7.112;2022-09-03T11:44:17;29.30;1.00
314;DHT22;143;51.634;7.112;2022-09-03T11:46:57;29.30;1.00
314;DHT22;143;51.634;7.112;2022-09-03T11:49:32;29.10;1.00
314;DHT22;143;51.634;7.112;2022-09-03T11:52:04;28.80;1.00
314;DHT22;143;51.634;7.112;2022-09-03T11:54:43;28.70;1.00
314;DHT22;143;51.634;7.112;2022-09-03T11:57:14;28.50;1.00
314;DHT22;143;51.634;7.112;2022-09-03T11:59:42;28.40;1.00
314;DHT22;143;51.634;7.112;2022-09-03T12:02:29;28.30;1.00
314;DHT22;143;51.634;7.112;2022-09-03T12:23:31;28.10;1.00
314;DHT22;143;51.634;7.112;2022-09-03T12:26:04;28.20;1.00
314;DHT22;143;51.634;7.112;2022-09-03T12:28:33;28.30;1.00
314;DHT22;143;51.634;7.112;2022-09-03T12:31:18;28.50;1.00
314;DHT22;143;51.634;7.112;2022-09-03T12:34:01;28.70;1.00
314;DHT22;143;51.634;7.112;2022-09-03T12:36:47;29.10;1.00
314;DHT22;143;51.634;7.112;2022-09-03T12:47:02;29.80;1.00
314;DHT22;143;51.634;7.112;2022-09-03T12:49:34;29.90;1.00
314;DHT22;143;51.634;7.112;2022-09-03T12:52:04;29.90;1.00
314;DHT22;143;51.634;7.112;2022-09-03T12:54:32;30.00;1.00
314;DHT22;143;51.634;7.112;2022-09-03T12:56:59;30.20;1.00
314;DHT22;143;51.634;7.112;2022-09-03T12:59:28;30.20;1.00
314;DHT22;143;51.634;7.112;2022-09-03T13:02:00;30.00;1.00
314;DHT22;143;51.634;7.112;2022-09-03T13:04:32;29.80;1.00
314;DHT22;143;51.634;7.112;2022-09-03T13:07:10;29.70;1.00
314;DHT22;143;51.634;7.112;2022-09-03T13:09:38;29.80;1.00
314;DHT22;143;51.634;7.112;2022-09-03T13:12:05;29.80;1.00
314;DHT22;143;51.634;7.112;2022-09-03T13:14:45;29.90;1.00
314;DHT22;143;51.634;7.112;2022-09-03T13:31:37;30.50;1.00
314;DHT22;143;51.634;7.112;2022-09-03T13:34:08;30.40;1.00
314;DHT22;143;51.634;7.112;2022-09-03T13:36:55;30.30;1.00
314;DHT22;143;51.634;7.112;2022-09-03T13:39:36;30.20;1.00
314;DHT22;143;51.634;7.112;2022-09-03T13:42:17;30.20;1.00
314;DHT22;143;51.634;7.112;2022-09-03T13:44:54;30.10;1.00
314;DHT22;143;51.634;7.112;2022-09-03T13:47:26;30.00;1.00
314;DHT22;143;51.634;7.112;2022-09-03T13:50:07;29.90;1.00
314;DHT22;143;51.634;7.112;2022-09-03T13:55:32;29.60;1.00
314;DHT22;143;51.634;7.112;2022-09-03T13:58:10;29.40;1.00
314;DHT22;143;51.634;7.112;2022-09-03T14:03:37;29.50;1.00
314;DHT22;143;51.634;7.112;2022-09-03T14:12:24;29.40;1.00
314;DHT22;143;51.634;7.112;2022-09-03T14:15:02;29.50;1.00
314;DHT22;143;51.634;7.112;2022-09-03T14:17:50;29.50;1.00
314;DHT22;143;51.634;7.112;2022-09-03T14:23:06;29.40;1.00
314;DHT22;143;51.634;7.112;2022-09-03T14:25:35;29.50;1.00
314;DHT22;143;51.634;7.112;2022-09-03T14:28:19;29.50;1.00
314;DHT22;143;51.634;7.112;2022-09-03T14:36:44;29.00;1.00
314;DHT22;143;51.634;7.112;2022-09-03T14:39:33;29.00;1.00
314;DHT22;143;51.634;7.112;2022-09-03T14:50:32;29.70;1.00
314;DHT22;143;51.634;7.112;2022-09-03T14:53:09;29.50;1.00
314;DHT22;143;51.634;7.112;2022-09-03T14:59:14;29.00;1.00
314;DHT22;143;51.634;7.112;2022-09-03T15:01:48;28.70;1.00
314;DHT22;143;51.634;7.112;2022-09-03T15:10:06;28.60;1.00
314;DHT22;143;51.634;7.112;2022-09-03T15:18:41;28.40;1.00
314;DHT22;143;51.634;7.112;2022-09-03T15:24:22;28.30;1.00
314;DHT22;143;51.634;7.112;2022-09-03T15:34:58;28.00;1.00
314;DHT22;143;51.634;7.112;2022-09-03T15:37:43;28.10;1.00
314;DHT22;143;51.634;7.112;2022-09-03T15:40:28;28.20;1.00
314;DHT22;143;51.634;7.112;2022-09-03T15:43:18;28.40;1.00
314;DHT22;143;51.634;7.112;2022-09-03T16:10:21;28.80;1.00
314;DHT22;143;51.634;7.112;2022-09-03T16:13:04;28.70;1.00
314;DHT22;143;51.634;7.112;2022-09-03T16:15:40;28.60;1.00
314;DHT22;143;51.634;7.112;2022-09-03T16:18:10;28.60;1.00
314;DHT22;143;51.634;7.112;2022-09-03T16:20:43;28.60;1.00
314;DHT22;143;51.634;7.112;2022-09-03T16:23:20;28.60;1.00
314;DHT22;143;51.634;7.112;2022-09-03T16:26:36;28.60;1.00
314;DHT22;143;51.634;7.112;2022-09-03T16:28:52;28.50;1.00
314;DHT22;143;51.634;7.112;2022-09-03T17:06:15;27.90;1.00
314;DHT22;143;51.634;7.112;2022-09-03T17:22:06;27.60;1.00
314;DHT22;143;51.634;7.112;2022-09-03T17:24:40;27.50;1.00
314;DHT22;143;51.634;7.112;2022-09-03T17:35:40;27.20;1.00
314;DHT22;143;51.634;7.112;2022-09-03T17:38:25;27.00;1.00
314;DHT22;143;51.634;7.112;2022-09-03T17:41:03;26.90;1.00
314;DHT22;143;51.634;7.112;2022-09-03T17:49:00;26.70;1.00
314;DHT22;143;51.634;7.112;2022-09-03T17:51:43;26.70;1.00
314;DHT22;143;51.634;7.112;2022-09-03T17:54:22;26.70;1.00
314;DHT22;143;51.634;7.112;2022-09-03T17:57:12;26.60;1.00
314;DHT22;143;51.634;7.112;2022-09-03T17:59:54;26.50;1.00
314;DHT22;143;51.634;7.112;2022-09-03T18:08:21;26.30;1.00
314;DHT22;143;51.634;7.112;2022-09-03T18:13:45;26.10;1.00
314;DHT22;143;51.634;7.112;2022-09-03T18:16:31;26.00;1.00
314;DHT22;143;51.634;7.112;2022-09-03T18:19:05;25.90;1.00
314;DHT22;143;51.634;7.112;2022-09-03T18:21:36;25.90;1.00
314;DHT22;143;51.634;7.112;2022-09-03T18:30:28;25.70;1.00
314;DHT22;143;51.634;7.112;2022-09-03T18:33:12;25.60;1.00
314;DHT22;143;51.634;7.112;2022-09-03T18:35:58;25.60;1.00
314;DHT22;143;51.634;7.112;2022-09-03T18:38:42;25.60;1.00
314;DHT22;143;51.634;7.112;2022-09-03T18:41:55;25.60;1.00
314;DHT22;143;51.634;7.112;2022-09-03T18:45:07;25.60;1.00
314;DHT22;143;51.634;7.112;2022-09-03T18:54:48;25.60;1.00
314;DHT22;143;51.634;7.112;2022-09-03T18:57:56;25.50;1.00
314;DHT22;143;51.634;7.112;2022-09-03T19:01:16;25.50;1.00
314;DHT22;143;51.634;7.112;2022-09-03T19:04:19;25.50;1.00
314;DHT22;143;51.634;7.112;2022-09-03T19:07:10;25.50;1.00
314;DHT22;143;51.634;7.112;2022-09-03T19:10:13;25.40;1.00
314;DHT22;143;51.634;7.112;2022-09-03T19:17:04;25.20;1.00
314;DHT22;143;51.634;7.112;2022-09-03T19:19:44;25.20;1.00
314;DHT22;143;51.634;7.112;2022-09-03T19:22:36;25.10;1.00
314;DHT22;143;51.634;7.112;2022-09-03T19:25:22;25.00;1.00
314;DHT22;143;51.634;7.112;2022-09-03T19:28:18;25.00;1.00
314;DHT22;143;51.634;7.112;2022-09-03T19:37:34;24.60;1.00
314;DHT22;143;51.634;7.112;2022-09-03T19:46:49;24.30;1.00
314;DHT22;143;51.634;7.112;2022-09-03T19:55:25;24.30;1.00
314;DHT22;143;51.634;7.112;2022-09-03T19:58:11;24.20;1.00
314;DHT22;143;51.634;7.112;2022-09-03T20:00:56;24.20;1.00
314;DHT22;143;51.634;7.112;2022-09-03T20:03:41;24.10;1.00
314;DHT22;143;51.634;7.112;2022-09-03T20:06:28;24.10;1.00
314;DHT22;143;51.634;7.112;2022-09-03T20:09:15;24.00;1.00
314;DHT22;143;51.634;7.112;2022-09-03T20:12:05;23.90;1.00
314;DHT22;143;51.634;7.112;2022-09-03T20:14:34;23.80;1.00
314;DHT22;143;51.634;7.112;2022-09-03T20:22:47;23.50;1.00
314;DHT22;143;51.634;7.112;2022-09-03T20:36:45;23.00;1.00
314;DHT22;143;51.634;7.112;2022-09-03T20:45:05;22.70;1.00
314;DHT22;143;51.634;7.112;2022-09-03T20:56:00;22.30;1.00
314;DHT22;143;51.634;7.112;2022-09-03T21:07:01;22.20;1.00
314;DHT22;143;51.634;7.112;2022-09-03T21:12:46;22.10;1.00
314;DHT22;143;51.634;7.112;2022-09-03T21:15:38;22.10;1.00
314;DHT22;143;51.634;7.112;2022-09-03T21:27:24;22.10;1.00
314;DHT22;143;51.634;7.112;2022-09-03T21:29:56;22.10;1.00
314;DHT22;143;51.634;7.112;2022-09-03T21:35:24;22.00;1.00
314;DHT22;143;51.634;7.112;2022-09-03T21:43:51;22.00;1.00
314;DHT22;143;51.634;7.112;2022-09-03T21:46:22;21.90;1.00
314;DHT22;143;51.634;7.112;2022-09-03T21:48:59;21.90;1.00
314;DHT22;143;51.634;7.112;2022-09-03T21:51:32;21.80;1.00
314;DHT22;143;51.634;7.112;2022-09-03T22:02:44;21.70;1.00
314;DHT22;143;51.634;7.112;2022-09-03T22:05:11;21.70;1.00
314;DHT22;143;51.634;7.112;2022-09-03T22:18:37;21.60;1.00
314;DHT22;143;51.634;7.112;2022-09-03T22:29:25;21.40;1.00
314;DHT22;143;51.634;7.112;2022-09-03T22:32:01;21.30;1.00
314;DHT22;143;51.634;7.112;2022-09-03T22:48:20;21.10;1.00
314;DHT22;143;51.634;7.112;2022-09-03T22:50:58;21.10;1.00
314;DHT22;143;51.634;7.112;2022-09-03T22:56:23;21.00;1.00
314;DHT22;143;51.634;7.112;2022-09-03T23:01:34;20.90;1.00
314;DHT22;143;51.634;7.112;2022-09-03T23:06:58;20.80;1.00
314;DHT22;143;51.634;7.112;2022-09-03T23:09:29;20.80;1.00
314;DHT22;143;51.634;7.112;2022-09-03T23:12:00;20.70;1.00
314;DHT22;143;51.634;7.112;2022-09-03T23:14:32;20.70;1.00
314;DHT22;143;51.634;7.112;2022-09-03T23:17:05;20.60;1.00
314;DHT22;143;51.634;7.112;2022-09-03T23:19:41;20.60;1.00
314;DHT22;143;51.634;7.112;2022-09-03T23:25:03;20.50;5.80
314;DHT22;143;51.634;7.112;2022-09-03T23:27:47;20.50;16.00
314;DHT22;143;51.634;7.112;2022-09-03T23:30:16;20.50;22.90
314;DHT22;143;51.634;7.112;2022-09-03T23:32:42;20.40;30.70
314;DHT22;143;51.634;7.112;2022-09-03T23:35:13;20.30;33.20
314;DHT22;143;51.634;7.112;2022-09-03T23:37:52;20.30;36.50
314;DHT22;143;51.634;7.112;2022-09-03T23:40:47;20.30;39.90
314;DHT22;143;51.634;7.112;2022-09-03T23:43:36;20.20;44.90
314;DHT22;143;51.634;7.112;2022-09-03T23:54:24;20.00;66.40
